Time;durP1;ratioP1;P1;durP2;ratioP2;P2;SDS_P1;SDS_P2;PMS_P1;PMS_P2;Temp;Humidity;BMP_temperature;BMP_pressure;BME280_temperature;BME280_humidity;BME280_pressure;Samples;Min_cycle;Max_cycle;Signal;HPM_P1;HPM_P2
2023/07/22 00:02:25;;;;;;;2.38;1.40;;;21.40;99.50;;;;;;5034485;28;20037;-44
2023/07/22 00:04:52;;;;;;;2.85;1.40;;;21.40;99.30;;;;;;5034176;28;20558;-44
2023/07/22 00:07:17;;;;;;;2.53;1.30;;;21.40;99.40;;;;;;5033892;28;20396;-42
2023/07/22 00:09:43;;;;;;;2.55;1.35;;;21.40;99.30;;;;;;5033976;28;20492;-41
2023/07/22 00:12:09;;;;;;;4.97;1.50;;;21.40;99.30;;;;;;5034298;28;20025;-41
2023/07/22 00:14:40;;;;;;;1.90;1.23;;;21.40;99.20;;;;;;5033761;28;20021;-41
2023/07/22 00:17:06;;;;;;;4.72;1.48;;;21.40;99.30;;;;;;5033804;28;20028;-43
2023/07/22 00:19:32;;;;;;;1.90;1.48;;;21.30;99.50;;;;;;5033350;28;20029;-46
2023/07/22 00:21:58;;;;;;;3.30;1.23;;;21.40;99.30;;;;;;5033862;28;20069;-42
2023/07/22 00:24:23;;;;;;;4.85;1.40;;;21.30;99.20;;;;;;5034356;28;20469;-41
2023/07/22 00:26:52;;;;;;;4.82;1.60;;;21.30;99.10;;;;;;5033497;28;20025;-43
2023/07/22 00:29:17;;;;;;;1.92;1.23;;;21.30;99.10;;;;;;5033215;28;20087;-41
2023/07/22 00:31:43;;;;;;;2.17;1.45;;;21.30;99.10;;;;;;5015532;28;20029;-41
2023/07/22 00:34:09;;;;;;;2.80;1.20;;;21.30;99.00;;;;;;5033357;28;20029;-43
2023/07/22 00:36:35;;;;;;;3.35;1.40;;;21.30;99.00;;;;;;5033356;28;20020;-44
2023/07/22 00:39:01;;;;;;;2.42;1.42;;;21.30;98.90;;;;;;5032943;28;20555;-46
2023/07/22 00:41:27;;;;;;;1.55;1.02;;;21.30;98.90;;;;;;5033532;28;20384;-40
2023/07/22 00:43:52;;;;;;;2.67;1.10;;;21.20;98.90;;;;;;5033200;28;20556;-40
2023/07/22 00:46:18;;;;;;;3.00;1.42;;;21.20;98.80;;;;;;5033202;28;20029;-42
2023/07/22 00:48:44;;;;;;;3.47;1.40;;;21.20;98.80;;;;;;5032945;28;20031;-41
2023/07/22 00:51:10;;;;;;;1.70;1.20;;;21.30;98.70;;;;;;5032896;28;20040;-42
2023/07/22 00:53:36;;;;;;;4.75;1.48;;;21.30;98.70;;;;;;5033077;28;20017;-42
2023/07/22 00:56:02;;;;;;;1.27;1.10;;;21.20;98.90;;;;;;5014892;28;20021;-46
2023/07/22 00:58:28;;;;;;;3.15;1.45;;;21.30;98.70;;;;;;5032894;28;20512;-45
2023/07/22 01:00:54;;;;;;;1.95;1.10;;;21.30;98.70;;;;;;5032697;28;20021;-42
2023/07/22 01:03:19;;;;;;;1.65;1.27;;;21.30;98.70;;;;;;5032842;28;20026;-45
2023/07/22 01:05:47;;;;;;;1.85;1.20;;;21.30;98.60;;;;;;5032789;28;20540;-41
2023/07/22 01:08:13;;;;;;;2.00;1.17;;;21.20;98.60;;;;;;5032585;28;20058;-43
2023/07/22 01:10:40;;;;;;;3.35;1.40;;;21.30;98.60;;;;;;5032591;28;20065;-41
2023/07/22 01:13:05;;;;;;;2.03;1.23;;;21.20;98.60;;;;;;5032629;28;20026;-43
2023/07/22 01:15:32;;;;;;;1.67;1.20;;;21.30;98.60;;;;;;5032606;28;20473;-41
2023/07/22 01:18:01;;;;;;;2.50;1.38;;;21.30;98.60;;;;;;5032351;28;20489;-40
2023/07/22 01:20:28;;;;;;;3.20;1.00;;;21.30;98.60;;;;;;5032803;28;20057;-41
2023/07/22 01:22:54;;;;;;;2.05;1.05;;;21.20;98.50;;;;;;5032331;28;20061;-40
2023/07/22 01:25:24;;;;;;;2.08;1.20;;;21.20;98.50;;;;;;5032438;28;20060;-42
2023/07/22 01:27:52;;;;;;;2.17;1.25;;;21.20;98.60;;;;;;5032305;28;20519;-43
2023/07/22 01:30:22;;;;;;;1.88;1.13;;;21.20;98.50;;;;;;5032164;28;20095;-40
2023/07/22 01:32:47;;;;;;;3.45;1.40;;;21.20;98.50;;;;;;5032194;28;20030;-39
2023/07/22 01:35:13;;;;;;;1.77;1.20;;;21.20;98.50;;;;;;5032191;28;20101;-42
2023/07/22 01:37:39;;;;;;;2.28;1.42;;;21.20;98.50;;;;;;5032173;28;20412;-41
2023/07/22 01:40:11;;;;;;;2.17;1.30;;;21.10;98.30;;;;;;5031944;28;20017;-41
2023/07/22 01:42:41;;;;;;;2.80;1.58;;;21.20;98.40;;;;;;5032107;28;20017;-41
2023/07/22 01:45:08;;;;;;;4.47;1.13;;;21.20;98.40;;;;;;5014245;28;20390;-41
2023/07/22 01:47:38;;;;;;;2.42;1.13;;;21.10;98.30;;;;;;5031932;28;20025;-40
2023/07/22 01:50:06;;;;;;;2.10;1.20;;;21.20;98.30;;;;;;5013944;28;20487;-42
2023/07/22 01:52:31;;;;;;;3.00;1.30;;;21.10;98.30;;;;;;5031875;28;20087;-40
2023/07/22 01:54:57;;;;;;;1.98;1.30;;;21.10;98.30;;;;;;5031994;28;20021;-40
2023/07/22 01:57:23;;;;;;;2.55;1.48;;;21.20;98.30;;;;;;5031759;28;20025;-40
2023/07/22 01:59:48;;;;;;;3.70;1.42;;;21.20;98.30;;;;;;5031533;28;20083;-41
2023/07/22 02:02:14;;;;;;;3.85;1.30;;;21.10;98.40;;;;;;5032186;28;20030;-39
2023/07/22 02:04:39;;;;;;;3.97;1.50;;;21.10;98.50;;;;;;5031659;28;20105;-40
2023/07/22 02:07:05;;;;;;;2.28;1.48;;;21.10;98.50;;;;;;5031731;28;20469;-40
2023/07/22 02:09:32;;;;;;;1.88;1.40;;;21.10;98.50;;;;;;5031461;28;20022;-41
2023/07/22 02:11:58;;;;;;;2.00;1.30;;;21.10;98.50;;;;;;5031663;28;20075;-41
2023/07/22 02:14:24;;;;;;;2.03;1.40;;;21.10;98.60;;;;;;5031622;28;20104;-40
2023/07/22 02:16:49;;;;;;;1.85;1.50;;;21.10;98.60;;;;;;5031493;28;20025;-40
2023/07/22 02:19:16;;;;;;;2.45;1.48;;;21.10;98.70;;;;;;5031044;28;20044;-43
2023/07/22 02:21:41;;;;;;;2.10;1.40;;;21.10;98.70;;;;;;5031490;28;20485;-41
2023/07/22 02:24:08;;;;;;;2.35;1.10;;;21.10;98.60;;;;;;5013669;28;20037;-43
2023/07/22 02:26:33;;;;;;;2.78;1.35;;;21.10;98.60;;;;;;5031379;28;20025;-42
2023/07/22 02:28:59;;;;;;;2.20;1.08;;;21.10;98.60;;;;;;5031099;28;20611;-41
2023/07/22 02:31:25;;;;;;;2.03;1.40;;;21.10;98.50;;;;;;5031233;28;20108;-44
2023/07/22 02:33:51;;;;;;;1.98;1.00;;;21.10;98.40;;;;;;5031166;28;20026;-43
2023/07/22 02:36:17;;;;;;;1.60;1.20;;;21.10;98.40;;;;;;5031342;28;20092;-41
2023/07/22 02:38:42;;;;;;;2.03;1.30;;;21.10;98.30;;;;;;5031303;28;20485;-41
2023/07/22 02:41:08;;;;;;;2.78;1.23;;;21.10;98.30;;;;;;5031420;28;20461;-42
2023/07/22 02:43:35;;;;;;;2.50;1.02;;;21.10;98.20;;;;;;5031264;28;20045;-42
2023/07/22 02:46:06;;;;;;;2.03;1.20;;;21.10;98.20;;;;;;5031151;28;20041;-44
2023/07/22 02:48:32;;;;;;;1.63;1.10;;;21.10;98.20;;;;;;5031162;28;20043;-42
2023/07/22 02:51:05;;;;;;;1.48;1.17;;;21.10;98.50;;;;;;5030987;28;20147;-42
2023/07/22 02:53:36;;;;;;;2.00;1.20;;;21.00;98.10;;;;;;5031002;28;20030;-42
2023/07/22 02:56:03;;;;;;;1.48;1.13;;;21.10;98.20;;;;;;5031144;28;20028;-44
2023/07/22 02:58:28;;;;;;;2.00;1.25;;;21.10;98.20;;;;;;5030979;28;20045;-41
2023/07/22 03:00:54;;;;;;;1.55;1.20;;;21.00;98.10;;;;;;5030818;28;20464;-41
2023/07/22 03:03:20;;;;;;;1.63;1.20;;;21.00;98.10;;;;;;5031240;28;20029;-41
2023/07/22 03:05:47;;;;;;;3.90;1.40;;;21.00;98.10;;;;;;5013383;28;20397;-42
2023/07/22 03:08:12;;;;;;;1.75;1.02;;;21.00;98.10;;;;;;5030899;28;20053;-41
2023/07/22 03:10:38;;;;;;;1.60;1.13;;;21.00;98.10;;;;;;5031111;28;20453;-42
2023/07/22 03:13:03;;;;;;;1.90;1.20;;;21.00;98.10;;;;;;5030809;28;20108;-41
2023/07/22 03:15:29;;;;;;;1.80;1.10;;;21.00;98.10;;;;;;5030830;28;20086;-44
2023/07/22 03:17:56;;;;;;;2.22;1.42;;;21.00;98.10;;;;;;5030731;28;20029;-43
2023/07/22 03:20:23;;;;;;;1.65;1.20;;;21.00;98.10;;;;;;5034591;28;20025;-43
2023/07/22 03:22:48;;;;;;;1.38;1.00;;;21.00;98.10;;;;;;5017011;28;20076;-42
2023/07/22 03:25:16;;;;;;;1.35;1.00;;;21.00;98.00;;;;;;5034706;28;20056;-42
2023/07/22 03:27:43;;;;;;;3.63;1.35;;;21.00;98.10;;;;;;5034519;28;20021;-41
2023/07/22 03:30:14;;;;;;;2.45;1.50;;;21.00;98.20;;;;;;5034358;28;20156;-41
2023/07/22 03:32:42;;;;;;;2.05;1.40;;;21.00;98.30;;;;;;5034439;28;20435;-44
2023/07/22 03:35:11;;;;;;;2.00;1.20;;;21.00;98.30;;;;;;5034455;28;20029;-40
2023/07/22 03:37:38;;;;;;;2.58;1.33;;;21.00;98.30;;;;;;5034411;28;20109;-41
2023/07/22 03:40:11;;;;;;;1.90;1.15;;;21.00;98.20;;;;;;5016724;28;20076;-43
2023/07/22 03:42:37;;;;;;;1.52;1.20;;;21.00;98.30;;;;;;5034379;28;20116;-42
2023/07/22 03:45:04;;;;;;;2.45;1.60;;;21.00;98.20;;;;;;5034501;28;20045;-41
2023/07/22 03:47:29;;;;;;;2.15;1.45;;;21.00;98.10;;;;;;5034237;28;20049;-39
2023/07/22 03:49:55;;;;;;;2.78;1.25;;;21.00;98.20;;;;;;5034070;28;20481;-44
2023/07/22 03:52:20;;;;;;;4.55;1.42;;;21.00;98.40;;;;;;5016349;28;20021;-40
2023/07/22 03:54:46;;;;;;;2.03;1.23;;;21.00;98.30;;;;;;5034167;28;20030;-40
2023/07/22 03:57:12;;;;;;;1.88;1.27;;;21.00;98.30;;;;;;5034121;28;20033;-41
2023/07/22 03:59:39;;;;;;;1.60;1.10;;;21.00;98.30;;;;;;5033786;28;20021;-46
2023/07/22 04:02:05;;;;;;;2.10;1.40;;;21.00;98.30;;;;;;5033971;28;20025;-40
2023/07/22 04:04:31;;;;;;;1.20;1.10;;;21.00;98.30;;;;;;5033976;28;20040;-41
2023/07/22 04:06:57;;;;;;;2.83;1.30;;;21.00;98.30;;;;;;5033949;28;20399;-41
2023/07/22 04:09:22;;;;;;;1.95;1.20;;;21.00;98.30;;;;;;5033519;28;20092;-41
2023/07/22 04:11:48;;;;;;;3.97;1.50;;;21.00;98.30;;;;;;5033631;28;20072;-41
2023/07/22 04:14:14;;;;;;;4.88;1.20;;;21.00;98.30;;;;;;5033774;28;20075;-41
2023/07/22 04:16:40;;;;;;;2.05;1.05;;;21.00;98.30;;;;;;5033751;28;20030;-40
2023/07/22 04:19:06;;;;;;;1.63;1.25;;;21.00;98.20;;;;;;5033321;28;20071;-42
2023/07/22 04:21:31;;;;;;;1.73;1.20;;;20.90;98.10;;;;;;5033858;28;20163;-41
2023/07/22 04:23:57;;;;;;;2.00;1.20;;;20.90;98.00;;;;;;5033669;28;20108;-44
2023/07/22 04:26:22;;;;;;;1.50;1.17;;;20.90;98.00;;;;;;5033521;28;20038;-41
2023/07/22 04:28:48;;;;;;;1.85;1.17;;;20.90;98.00;;;;;;5033296;28;20025;-44
2023/07/22 04:31:14;;;;;;;2.38;1.38;;;20.90;98.00;;;;;;5032218;28;20248;-45
2023/07/22 04:33:41;;;;;;;1.77;1.27;;;20.90;97.90;;;;;;5033429;28;20018;-40
2023/07/22 04:36:07;;;;;;;1.60;0.98;;;20.90;98.00;;;;;;5033362;28;20021;-42
2023/07/22 04:38:33;;;;;;;2.05;1.30;;;20.90;97.90;;;;;;5033178;28;20033;-41
2023/07/22 04:41:01;;;;;;;1.98;1.33;;;20.90;98.00;;;;;;5033061;28;20018;-41
2023/07/22 04:43:26;;;;;;;3.88;1.30;;;20.90;97.90;;;;;;5033261;28;20041;-44
2023/07/22 04:45:52;;;;;;;3.50;1.55;;;20.90;97.90;;;;;;5033246;28;20037;-43
2023/07/22 04:48:20;;;;;;;2.38;1.33;;;20.90;98.00;;;;;;5033366;28;20108;-43
2023/07/22 04:50:46;;;;;;;1.90;1.40;;;20.90;98.00;;;;;;5033037;28;20026;-44
2023/07/22 04:53:15;;;;;;;2.22;1.30;;;20.90;98.00;;;;;;5033009;28;20107;-42
2023/07/22 04:55:41;;;;;;;2.28;1.27;;;20.90;98.00;;;;;;5033062;28;20079;-41
2023/07/22 04:58:07;;;;;;;2.45;1.30;;;20.90;98.00;;;;;;5032994;28;20485;-41
2023/07/22 05:00:33;;;;;;;1.85;1.30;;;20.90;98.00;;;;;;5032912;28;20029;-41
2023/07/22 05:02:59;;;;;;;2.63;1.13;;;20.90;98.00;;;;;;5032941;28;20026;-41
2023/07/22 05:05:24;;;;;;;3.10;1.25;;;20.90;98.10;;;;;;5032910;28;20025;-41
2023/07/22 05:07:50;;;;;;;1.52;1.20;;;20.90;98.10;;;;;;5015204;28;20072;-42
2023/07/22 05:10:16;;;;;;;3.17;1.60;;;20.90;98.20;;;;;;5032559;28;20104;-41
2023/07/22 05:12:42;;;;;;;2.20;1.38;;;20.90;98.20;;;;;;5032618;28;20057;-40
2023/07/22 05:15:11;;;;;;;1.67;1.20;;;20.90;98.30;;;;;;5032750;28;20715;-41
2023/07/22 05:17:36;;;;;;;4.30;1.40;;;20.90;98.20;;;;;;5032402;28;20431;-41
2023/07/22 05:20:05;;;;;;;1.80;1.20;;;20.80;98.20;;;;;;5032399;28;20092;-42
2023/07/22 05:22:31;;;;;;;2.45;1.33;;;20.90;98.20;;;;;;5032383;28;20028;-40
2023/07/22 05:24:57;;;;;;;1.67;1.20;;;20.90;98.20;;;;;;5032485;28;20029;-42
2023/07/22 05:27:23;;;;;;;1.77;1.00;;;20.90;98.20;;;;;;5032486;28;20112;-43
2023/07/22 05:29:48;;;;;;;1.30;1.20;;;20.90;98.30;;;;;;5032472;28;20109;-41
2023/07/22 05:32:14;;;;;;;2.30;1.30;;;20.90;98.30;;;;;;5032268;28;20030;-40
2023/07/22 05:34:39;;;;;;;1.38;1.10;;;20.90;98.20;;;;;;5032223;28;20032;-42
2023/07/22 05:37:05;;;;;;;2.10;1.30;;;20.90;98.30;;;;;;5032580;28;20072;-42
2023/07/22 05:39:31;;;;;;;1.50;1.08;;;20.90;98.40;;;;;;5032072;28;20449;-41
2023/07/22 05:41:56;;;;;;;3.38;1.08;;;20.90;98.50;;;;;;5014023;28;20030;-42
2023/07/22 05:44:22;;;;;;;2.80;1.38;;;20.90;98.50;;;;;;5032194;28;20108;-41
2023/07/22 05:46:47;;;;;;;3.78;1.10;;;20.90;98.50;;;;;;5032014;28;20027;-42
2023/07/22 05:49:13;;;;;;;2.30;1.33;;;20.90;98.50;;;;;;5031739;28;20021;-40
2023/07/22 05:51:39;;;;;;;2.17;1.40;;;20.90;98.60;;;;;;5031751;28;20143;-41
2023/07/22 05:54:04;;;;;;;1.63;1.00;;;20.90;98.60;;;;;;5031845;28;20068;-41
2023/07/22 05:56:30;;;;;;;2.85;1.48;;;21.00;98.70;;;;;;5031884;28;20037;-41
2023/07/22 05:58:56;;;;;;;2.05;1.25;;;20.90;98.60;;;;;;5031613;28;20025;-42
2023/07/22 06:01:22;;;;;;;3.13;1.38;;;20.90;98.70;;;;;;5032109;28;20017;-41
2023/07/22 06:03:48;;;;;;;2.00;1.33;;;20.90;98.70;;;;;;5031736;28;20049;-44
2023/07/22 06:06:14;;;;;;;1.40;1.20;;;20.90;98.70;;;;;;5031577;28;20087;-41
2023/07/22 06:08:39;;;;;;;1.38;1.00;;;21.00;98.70;;;;;;5031624;28;20025;-41
2023/07/22 06:11:05;;;;;;;1.95;1.10;;;20.90;98.80;;;;;;5031491;28;20425;-41
2023/07/22 06:13:31;;;;;;;2.47;1.30;;;21.00;98.90;;;;;;5031674;28;20064;-42
2023/07/22 06:15:56;;;;;;;1.80;1.20;;;20.90;98.80;;;;;;5031654;28;20040;-42
2023/07/22 06:18:22;;;;;;;1.70;1.23;;;20.90;98.90;;;;;;5031369;28;20036;-41
2023/07/22 06:20:48;;;;;;;2.20;1.30;;;20.90;98.90;;;;;;5031164;28;20053;-43
2023/07/22 06:23:14;;;;;;;2.08;1.20;;;21.00;98.90;;;;;;5031540;28;20112;-41
2023/07/22 06:25:39;;;;;;;1.75;1.20;;;21.00;98.90;;;;;;5031456;28;20117;-41
2023/07/22 06:28:06;;;;;;;2.08;1.50;;;20.90;98.90;;;;;;5031371;28;20112;-42
2023/07/22 06:30:32;;;;;;;2.15;1.30;;;21.00;98.90;;;;;;5031217;28;20033;-43
2023/07/22 06:32:57;;;;;;;1.98;1.30;;;21.00;98.90;;;;;;5031187;28;20029;-42
2023/07/22 06:35:23;;;;;;;2.33;1.35;;;21.00;98.90;;;;;;5031210;28;20082;-43
2023/07/22 06:37:49;;;;;;;2.15;1.10;;;21.00;98.90;;;;;;5031233;28;20030;-42
2023/07/22 06:40:14;;;;;;;1.67;1.40;;;21.00;98.80;;;;;;5031230;28;20055;-42
2023/07/22 06:42:40;;;;;;;1.63;1.15;;;21.00;98.80;;;;;;5031522;28;20048;-42
2023/07/22 06:45:06;;;;;;;1.58;1.23;;;21.00;98.80;;;;;;5031212;28;20033;-41
2023/07/22 06:47:32;;;;;;;1.35;1.15;;;21.00;98.80;;;;;;5031102;28;20021;-41
2023/07/22 06:49:57;;;;;;;2.55;1.20;;;21.00;98.90;;;;;;5013365;28;20040;-40
2023/07/22 06:52:23;;;;;;;1.58;1.27;;;21.00;98.80;;;;;;5031108;28;20366;-41
2023/07/22 06:54:49;;;;;;;1.38;0.98;;;21.00;98.80;;;;;;5034314;28;20024;-42
2023/07/22 06:57:15;;;;;;;1.55;1.20;;;21.00;98.80;;;;;;5035244;28;20029;-42
2023/07/22 06:59:41;;;;;;;2.30;1.23;;;21.00;98.80;;;;;;5034952;28;20021;-41
2023/07/22 07:02:06;;;;;;;1.67;1.10;;;21.00;98.80;;;;;;5035113;28;20037;-40
2023/07/22 07:04:32;;;;;;;1.45;1.02;;;21.00;98.80;;;;;;5035006;28;20105;-40
2023/07/22 07:06:59;;;;;;;1.52;1.20;;;21.00;98.80;;;;;;5035112;28;20369;-41
2023/07/22 07:09:25;;;;;;;2.35;1.20;;;21.00;98.80;;;;;;5034878;28;20056;-40
2023/07/22 07:11:51;;;;;;;1.77;0.93;;;21.00;98.80;;;;;;5034982;28;20025;-40
2023/07/22 07:14:17;;;;;;;2.08;1.20;;;21.00;98.80;;;;;;5035389;28;20030;-44
2023/07/22 07:16:43;;;;;;;2.83;1.30;;;21.00;98.80;;;;;;5034932;28;20021;-42
2023/07/22 07:19:09;;;;;;;1.50;1.17;;;21.00;98.80;;;;;;5034352;28;20061;-42
2023/07/22 07:21:35;;;;;;;2.20;1.20;;;21.00;98.80;;;;;;5017545;28;20029;-41
2023/07/22 07:24:01;;;;;;;1.60;1.30;;;21.00;98.80;;;;;;5034757;28;20362;-41
2023/07/22 07:26:27;;;;;;;1.73;1.17;;;21.00;98.80;;;;;;5034714;28;20068;-42
2023/07/22 07:28:53;;;;;;;1.58;1.27;;;21.00;98.80;;;;;;5034405;28;20024;-41
2023/07/22 07:31:19;;;;;;;3.13;1.30;;;21.00;98.80;;;;;;5034907;28;20487;-43
2023/07/22 07:33:45;;;;;;;1.38;1.13;;;21.00;98.80;;;;;;5034390;28;20033;-41
2023/07/22 07:36:10;;;;;;;1.92;1.20;;;21.00;98.80;;;;;;5034595;28;20037;-41
2023/07/22 07:38:36;;;;;;;2.00;0.93;;;21.10;98.80;;;;;;5034575;28;20052;-42
2023/07/22 07:41:03;;;;;;;2.38;1.20;;;21.00;98.80;;;;;;5034271;28;20032;-41
2023/07/22 07:43:29;;;;;;;3.88;1.35;;;21.10;98.80;;;;;;5034392;28;20021;-44
2023/07/22 07:46:13;;;;;;;1.50;1.20;;;21.00;98.80;;;;;;5034331;28;20384;-42
2023/07/22 07:48:39;;;;;;;1.13;0.98;;;21.00;98.80;;;;;;5034137;28;20029;-42
2023/07/22 07:51:04;;;;;;;1.52;1.00;;;21.00;98.80;;;;;;5034063;28;20039;-42
2023/07/22 07:53:30;;;;;;;1.65;1.05;;;21.00;98.80;;;;;;5034163;28;20305;-45
2023/07/22 07:55:55;;;;;;;1.83;1.20;;;21.00;98.80;;;;;;5034161;28;20116;-41
2023/07/22 07:58:21;;;;;;;2.25;1.20;;;21.10;98.80;;;;;;5034051;28;20030;-42
2023/07/22 08:00:47;;;;;;;1.35;1.00;;;21.00;98.80;;;;;;5034289;28;20029;-40
2023/07/22 08:03:12;;;;;;;2.60;1.20;;;21.10;98.80;;;;;;5034001;28;20029;-42
2023/07/22 08:05:39;;;;;;;2.42;1.23;;;21.10;98.80;;;;;;5033919;28;20029;-45
2023/07/22 08:08:04;;;;;;;2.05;1.10;;;21.00;98.70;;;;;;5033876;28;20103;-41
2023/07/22 08:10:30;;;;;;;1.23;1.08;;;21.10;98.80;;;;;;5033706;28;20476;-42
2023/07/22 08:12:56;;;;;;;1.23;1.10;;;21.10;98.80;;;;;;5033805;28;20029;-42
2023/07/22 08:15:21;;;;;;;1.30;1.10;;;21.10;98.70;;;;;;5033809;28;20067;-41
2023/07/22 08:17:47;;;;;;;1.20;1.10;;;21.10;98.80;;;;;;5033598;28;20396;-42
2023/07/22 08:20:12;;;;;;;1.27;0.90;;;21.10;98.70;;;;;;5033518;28;20026;-43
2023/07/22 08:22:38;;;;;;;1.40;1.10;;;21.10;98.70;;;;;;5033646;28;20032;-43
2023/07/22 08:25:04;;;;;;;1.27;0.98;;;21.10;98.70;;;;;;5033666;28;20033;-42
2023/07/22 08:27:30;;;;;;;1.95;1.10;;;21.10;98.70;;;;;;5033582;28;20029;-43
2023/07/22 08:29:55;;;;;;;2.05;1.48;;;21.10;98.70;;;;;;5033440;28;20033;-44
2023/07/22 08:32:21;;;;;;;1.17;1.00;;;21.10;98.70;;;;;;5033615;28;20109;-43
2023/07/22 08:34:46;;;;;;;1.70;1.30;;;21.10;98.60;;;;;;5033593;28;20025;-41
2023/07/22 08:37:12;;;;;;;1.55;1.20;;;21.10;98.70;;;;;;5033413;28;20037;-42
2023/07/22 08:39:38;;;;;;;1.67;1.10;;;21.10;98.60;;;;;;5033065;28;20103;-44
2023/07/22 08:42:05;;;;;;;1.35;1.05;;;21.10;98.60;;;;;;5033451;28;20026;-42
2023/07/22 08:44:35;;;;;;;1.30;1.20;;;21.10;98.60;;;;;;5033185;28;20032;-42
2023/07/22 08:47:03;;;;;;;1.50;1.13;;;21.10;98.60;;;;;;5033211;28;20087;-43
2023/07/22 08:49:30;;;;;;;1.20;0.98;;;21.10;98.90;;;;;;5033049;28;20025;-42
2023/07/22 08:51:57;;;;;;;1.30;1.05;;;21.10;98.60;;;;;;5033192;28;20101;-45
2023/07/22 08:54:23;;;;;;;1.90;1.60;;;21.10;98.90;;;;;;5033077;28;20063;-46
2023/07/22 08:56:50;;;;;;;1.55;1.10;;;21.20;98.60;;;;;;5032991;28;20117;-42
2023/07/22 08:59:18;;;;;;;1.23;1.05;;;21.10;98.50;;;;;;5032637;28;20029;-42
2023/07/22 09:01:44;;;;;;;1.88;1.27;;;21.10;98.50;;;;;;5032974;28;20340;-41
2023/07/22 09:04:09;;;;;;;1.45;1.20;;;21.10;98.50;;;;;;5033176;28;20437;-42
2023/07/22 09:06:35;;;;;;;1.10;0.80;;;21.10;98.40;;;;;;5032903;28;20036;-41
2023/07/22 09:09:07;;;;;;;1.15;0.95;;;21.20;98.50;;;;;;5032585;28;20887;-41
2023/07/22 09:11:34;;;;;;;2.33;1.20;;;21.20;98.50;;;;;;5032624;28;20100;-40
2023/07/22 09:14:02;;;;;;;1.20;0.88;;;21.20;98.40;;;;;;5032738;28;20448;-41
2023/07/22 09:16:29;;;;;;;1.45;1.20;;;21.10;98.40;;;;;;5031982;28;20476;-41
2023/07/22 09:18:57;;;;;;;1.50;1.08;;;21.20;98.40;;;;;;5032590;28;20038;-40
2023/07/22 09:21:23;;;;;;;1.40;1.10;;;21.20;98.40;;;;;;5032573;28;20503;-43
2023/07/22 09:23:49;;;;;;;2.13;1.00;;;21.20;98.40;;;;;;5032543;28;20022;-41
2023/07/22 09:26:18;;;;;;;1.30;0.90;;;21.20;98.40;;;;;;5032451;28;20074;-42
2023/07/22 09:28:57;;;;;;;1.40;0.95;;;21.20;98.40;;;;;;5032733;28;20022;-41
2023/07/22 09:31:24;;;;;;;1.40;0.90;;;21.20;98.40;;;;;;5032711;28;20385;-40
2023/07/22 09:33:50;;;;;;;1.20;0.98;;;21.20;98.40;;;;;;5032354;28;20030;-42
2023/07/22 09:36:17;;;;;;;1.15;0.95;;;21.20;98.40;;;;;;5032438;28;20029;-41
2023/07/22 09:38:43;;;;;;;2.05;1.00;;;21.20;98.40;;;;;;5014696;28;20025;-42
2023/07/22 09:41:09;;;;;;;1.50;0.98;;;21.20;98.40;;;;;;5032770;28;20060;-43
2023/07/22 09:43:38;;;;;;;1.50;1.10;;;21.20;98.40;;;;;;5032417;28;20124;-39
2023/07/22 09:46:11;;;;;;;1.70;0.98;;;21.20;98.40;;;;;;5032020;28;20024;-40
2023/07/22 09:48:45;;;;;;;1.92;1.00;;;21.20;98.40;;;;;;5031968;28;20022;-42
2023/07/22 09:51:16;;;;;;;1.40;1.08;;;21.20;98.30;;;;;;5031969;28;20017;-43
2023/07/22 09:53:46;;;;;;;1.38;1.00;;;21.20;98.40;;;;;;5031855;28;20028;-43
2023/07/22 09:56:12;;;;;;;1.20;1.02;;;21.20;98.40;;;;;;5014432;28;20029;-42
2023/07/22 09:58:38;;;;;;;1.17;0.90;;;21.20;98.40;;;;;;5031821;28;20040;-45
2023/07/22 10:01:05;;;;;;;1.52;1.23;;;21.20;98.30;;;;;;5013828;28;20556;-44
2023/07/22 10:03:32;;;;;;;1.27;1.00;;;21.20;98.30;;;;;;5031776;28;20029;-42
2023/07/22 10:06:00;;;;;;;1.52;1.15;;;21.20;98.30;;;;;;5031777;28;20067;-40
2023/07/22 10:08:29;;;;;;;1.30;1.00;;;21.20;98.30;;;;;;5031643;28;20029;-42
2023/07/22 10:10:57;;;;;;;1.35;1.00;;;21.20;98.30;;;;;;5031502;28;20045;-41
2023/07/22 10:13:24;;;;;;;1.90;0.93;;;21.20;98.30;;;;;;5031515;28;20420;-41
2023/07/22 10:15:50;;;;;;;1.50;1.10;;;21.20;98.30;;;;;;5031614;28;20484;-41
2023/07/22 10:18:17;;;;;;;1.20;0.90;;;21.20;98.20;;;;;;5031731;28;20029;-41
2023/07/22 10:20:44;;;;;;;1.70;1.10;;;21.20;98.20;;;;;;5031277;28;20397;-46
2023/07/22 10:23:13;;;;;;;1.13;0.90;;;21.20;98.20;;;;;;5031901;28;20430;-41
2023/07/22 10:25:39;;;;;;;1.50;1.10;;;21.20;98.20;;;;;;5031445;28;20022;-43
2023/07/22 10:28:06;;;;;;;1.20;0.82;;;21.20;98.20;;;;;;5031333;28;20365;-42
2023/07/22 10:30:33;;;;;;;1.10;0.90;;;21.20;98.20;;;;;;5031161;28;20033;-41
2023/07/22 10:32:58;;;;;;;2.13;1.10;;;21.20;98.50;;;;;;5031205;28;20072;-41
2023/07/22 10:35:30;;;;;;;1.40;0.85;;;21.20;98.20;;;;;;5031354;28;20025;-42
2023/07/22 10:38:06;;;;;;;1.13;0.85;;;21.20;98.20;;;;;;5031248;28;20060;-41
2023/07/22 10:40:32;;;;;;;1.20;1.00;;;21.20;98.20;;;;;;5031154;28;20045;-44
2023/07/22 10:43:05;;;;;;;1.23;1.08;;;21.20;98.20;;;;;;5031898;28;20065;-41
2023/07/22 10:45:34;;;;;;;1.10;0.77;;;21.20;98.20;;;;;;5031855;28;20083;-42
2023/07/22 10:48:01;;;;;;;1.75;1.20;;;21.30;98.30;;;;;;5031387;28;20030;-42
2023/07/22 10:50:48;;;;;;;1.80;1.17;;;21.20;98.30;;;;;;5031009;28;20024;-42
2023/07/22 10:53:24;;;;;;;1.58;1.10;;;21.30;98.30;;;;;;5031161;28;20029;-42
2023/07/22 10:56:16;;;;;;;1.10;1.00;;;21.20;98.30;;;;;;5031041;28;20017;-41
2023/07/22 10:58:44;;;;;;;1.17;0.90;;;21.20;98.30;;;;;;5030916;28;20032;-41
2023/07/22 11:01:29;;;;;;;1.55;1.10;;;21.30;98.30;;;;;;5031026;28;20049;-42
2023/07/22 11:04:14;;;;;;;1.15;0.80;;;21.20;98.30;;;;;;5031066;28;20103;-43
2023/07/22 11:06:56;;;;;;;1.20;0.90;;;21.20;98.20;;;;;;5031038;28;20095;-41
2023/07/22 11:09:27;;;;;;;1.48;1.00;;;21.30;98.30;;;;;;5013036;28;20040;-46
2023/07/22 11:12:05;;;;;;;1.55;1.00;;;21.20;98.20;;;;;;5030919;28;20107;-41
2023/07/22 11:14:37;;;;;;;2.05;0.90;;;21.20;98.20;;;;;;5030879;28;20017;-40
2023/07/22 11:17:05;;;;;;;1.88;1.13;;;21.20;98.20;;;;;;5031118;28;20032;-42
2023/07/22 11:19:32;;;;;;;1.42;0.90;;;21.30;98.30;;;;;;5030753;28;20033;-41
2023/07/22 11:21:57;;;;;;;1.15;0.80;;;21.20;98.30;;;;;;5030902;28;20033;-42
2023/07/22 11:24:24;;;;;;;1.58;1.00;;;21.30;98.30;;;;;;5030900;28;20039;-44
2023/07/22 11:26:51;;;;;;;1.30;1.00;;;21.30;98.30;;;;;;5030787;28;20024;-42
2023/07/22 11:29:17;;;;;;;1.25;0.88;;;21.30;98.30;;;;;;5030438;28;20044;-43
2023/07/22 11:31:48;;;;;;;1.15;0.80;;;21.30;98.30;;;;;;5030751;28;20029;-43
2023/07/22 11:34:15;;;;;;;1.33;0.90;;;21.30;98.30;;;;;;5030972;28;20449;-41
2023/07/22 11:36:42;;;;;;;0.88;0.75;;;21.30;98.30;;;;;;5030771;28;20022;-40
2023/07/22 11:39:13;;;;;;;1.17;1.00;;;21.30;98.30;;;;;;5030762;28;20124;-49
2023/07/22 11:41:41;;;;;;;1.25;0.90;;;21.30;98.40;;;;;;5034274;28;20021;-43
2023/07/22 11:44:10;;;;;;;1.77;0.95;;;21.30;98.30;;;;;;5034400;28;20027;-40
2023/07/22 11:46:36;;;;;;;1.13;0.90;;;21.30;98.60;;;;;;5016622;28;20389;-42
2023/07/22 11:49:02;;;;;;;1.67;1.27;;;21.30;98.30;;;;;;5034107;28;20045;-42
2023/07/22 11:51:29;;;;;;;1.70;0.90;;;21.40;98.30;;;;;;5034317;28;20100;-46
2023/07/22 11:53:55;;;;;;;1.52;1.20;;;21.30;98.30;;;;;;5034264;28;20103;-41
2023/07/22 11:56:22;;;;;;;1.13;0.90;;;21.30;98.30;;;;;;5034153;28;20108;-45
2023/07/22 11:58:52;;;;;;;3.67;0.90;;;21.30;98.20;;;;;;5033955;28;20099;-43
2023/07/22 12:01:18;;;;;;;2.75;1.20;;;21.40;98.30;;;;;;5034098;28;20060;-42
2023/07/22 12:03:44;;;;;;;1.83;1.10;;;21.40;98.30;;;;;;5034002;28;20022;-43
2023/07/22 12:06:11;;;;;;;1.45;1.00;;;21.40;98.30;;;;;;5034166;28;20483;-44
2023/07/22 12:08:42;;;;;;;1.20;1.10;;;21.40;98.30;;;;;;5033778;28;20108;-45
2023/07/22 12:11:08;;;;;;;1.15;0.90;;;21.40;98.30;;;;;;5033800;28;20029;-44
2023/07/22 12:13:37;;;;;;;1.20;1.10;;;21.40;98.20;;;;;;5033851;28;20022;-41
2023/07/22 12:16:05;;;;;;;2.45;1.10;;;21.40;98.30;;;;;;5033933;28;20052;-47
2023/07/22 12:18:44;;;;;;;1.33;0.90;;;21.40;98.30;;;;;;5033669;28;20032;-41
2023/07/22 12:21:10;;;;;;;2.50;0.90;;;21.40;98.30;;;;;;5015808;28;20045;-41
2023/07/22 12:23:37;;;;;;;1.40;1.10;;;21.40;98.30;;;;;;5015875;28;20389;-45
2023/07/22 12:26:02;;;;;;;1.35;1.00;;;21.40;98.30;;;;;;5033571;28;20034;-43
2023/07/22 12:28:28;;;;;;;1.67;1.02;;;21.40;98.30;;;;;;5033497;28;20036;-42
2023/07/22 12:30:54;;;;;;;1.40;1.10;;;21.40;98.20;;;;;;5033539;28;20029;-43
2023/07/22 12:33:20;;;;;;;1.10;0.82;;;21.40;98.20;;;;;;5033411;28;20358;-39
2023/07/22 12:35:45;;;;;;;1.33;1.08;;;21.40;98.20;;;;;;5033456;28;20032;-41
2023/07/22 12:38:11;;;;;;;1.45;0.98;;;21.40;98.20;;;;;;5033292;28;20103;-40
2023/07/22 12:40:38;;;;;;;1.35;1.02;;;21.40;98.20;;;;;;5033174;28;20037;-42
2023/07/22 12:43:03;;;;;;;1.52;0.90;;;21.40;98.20;;;;;;5033568;28;20465;-42
2023/07/22 12:45:29;;;;;;;3.20;1.10;;;21.40;98.20;;;;;;5033277;28;20061;-42
2023/07/22 12:47:55;;;;;;;1.05;0.85;;;21.40;98.30;;;;;;5033190;28;20531;-42